createdAt,value
2019-03-26T00:00:49.183Z,2.83
2019-03-26T00:03:19.498Z,3.13
2019-03-26T00:05:49.897Z,2.33
2019-03-26T00:08:20.198Z,2.83
2019-03-26T00:10:50.703Z,2.50
2019-03-26T00:13:21.248Z,2.63
2019-03-26T00:19:24.119Z,2.90
2019-03-26T00:21:54.394Z,2.73
2019-03-26T00:24:24.786Z,2.63
2019-03-26T00:26:55.175Z,3.00
2019-03-26T00:29:25.859Z,2.93
2019-03-26T00:31:56.124Z,2.73
2019-03-26T00:34:26.445Z,2.27
2019-03-26T00:36:56.932Z,2.50
2019-03-26T00:39:27.353Z,2.80
2019-03-26T00:41:57.761Z,3.37
2019-03-26T00:44:28.165Z,3.07
2019-03-26T00:46:58.665Z,2.93
2019-03-26T00:49:29.133Z,2.23
2019-03-26T00:51:59.551Z,2.67
2019-03-26T00:54:29.936Z,2.33
2019-03-26T00:57:00.430Z,2.60
2019-03-26T00:59:30.847Z,2.90
2019-03-26T01:02:01.149Z,2.40
2019-03-26T01:04:33.183Z,2.83
2019-03-26T01:07:03.770Z,2.57
2019-03-26T01:09:34.221Z,3.27
2019-03-26T01:12:04.497Z,4.70
2019-03-26T01:14:34.852Z,2.37
2019-03-26T01:17:05.267Z,3.10
2019-03-26T01:19:35.660Z,2.13
2019-03-26T01:22:06.159Z,2.53
2019-03-26T01:24:36.475Z,2.60
2019-03-26T01:27:06.693Z,3.17
2019-03-26T01:33:09.523Z,3.17
2019-03-26T01:35:39.776Z,2.20
2019-03-26T01:38:10.022Z,2.23
2019-03-26T01:40:40.383Z,2.60
2019-03-26T01:43:10.691Z,3.17
2019-03-26T01:45:41.103Z,1.80
2019-03-26T01:48:11.559Z,3.00
2019-03-26T01:50:42.015Z,2.83
2019-03-26T01:53:12.381Z,2.57
2019-03-26T01:55:42.755Z,3.30
2019-03-26T01:58:13.067Z,1.70
2019-03-26T02:00:43.508Z,2.27
2019-03-26T02:03:13.827Z,3.50
2019-03-26T02:05:44.229Z,2.53
2019-03-26T02:08:14.450Z,3.20
2019-03-26T02:10:44.821Z,2.70
2019-03-26T02:13:15.247Z,3.17
2019-03-26T02:15:45.587Z,2.27
2019-03-26T02:18:16.048Z,2.63
2019-03-26T02:20:46.434Z,2.10
2019-03-26T02:23:16.969Z,3.50
2019-03-26T02:25:47.307Z,2.00
2019-03-26T02:28:17.694Z,3.33
2019-03-26T02:30:49.442Z,2.93
2019-03-26T02:33:19.692Z,3.00
2019-03-26T02:35:50.195Z,3.50
2019-03-26T02:38:20.447Z,2.33
2019-03-26T02:40:50.744Z,2.90
2019-03-26T02:43:21.011Z,2.80
2019-03-26T02:45:51.443Z,2.77
2019-03-26T02:48:21.770Z,2.30
2019-03-26T02:50:52.903Z,2.87
2019-03-26T02:53:23.221Z,2.50
2019-03-26T02:55:53.666Z,2.60
2019-03-26T02:58:24.001Z,2.83
2019-03-26T03:00:54.350Z,2.53
2019-03-26T03:03:24.713Z,2.87
2019-03-26T03:05:54.941Z,3.33
2019-03-26T03:08:25.259Z,2.33
2019-03-26T03:10:55.588Z,2.80
2019-03-26T03:13:25.989Z,2.57
2019-03-26T03:15:56.356Z,3.70
2019-03-26T03:18:26.605Z,3.03
2019-03-26T03:20:56.967Z,3.00
2019-03-26T03:23:27.490Z,2.60
2019-03-26T03:25:57.876Z,3.10
2019-03-26T03:28:28.249Z,1.87
2019-03-26T03:30:58.543Z,2.07
2019-03-26T03:33:28.970Z,3.20
2019-03-26T03:35:59.285Z,1.97
2019-03-26T03:38:48.497Z,2.53
2019-03-26T03:41:18.905Z,1.70
2019-03-26T03:43:49.277Z,1.90
2019-03-26T03:46:19.846Z,2.53
2019-03-26T03:48:50.772Z,3.47
2019-03-26T03:51:27.066Z,1.77
2019-03-26T03:53:59.279Z,2.13
2019-03-26T03:56:31.658Z,3.33
2019-03-26T03:59:02.624Z,2.27
2019-03-26T04:01:33.002Z,2.33
2019-03-26T04:04:03.309Z,2.40
2019-03-26T04:06:33.835Z,2.60
2019-03-26T04:09:05.722Z,2.60
2019-03-26T04:11:36.229Z,1.77
2019-03-26T04:14:06.606Z,3.00
2019-03-26T04:16:37.253Z,2.80
2019-03-26T04:19:07.546Z,2.77
2019-03-26T04:21:37.888Z,2.50
2019-03-26T04:24:08.105Z,2.50
2019-03-26T04:26:38.379Z,3.70
2019-03-26T04:29:08.782Z,3.23
2019-03-26T04:31:39.339Z,4.00
2019-03-26T04:34:10.028Z,3.27
2019-03-26T04:36:40.320Z,4.10
2019-03-26T04:39:11.087Z,4.23
2019-03-26T04:41:41.477Z,3.53
2019-03-26T04:44:11.930Z,3.50
2019-03-26T04:46:42.297Z,2.90
2019-03-26T04:49:12.674Z,3.63
2019-03-26T04:51:43.024Z,3.20
2019-03-26T04:54:13.728Z,3.13
2019-03-26T04:56:44.037Z,3.77
2019-03-26T04:59:14.372Z,3.47
2019-03-26T05:01:44.686Z,3.07
2019-03-26T05:04:15.031Z,3.23
2019-03-26T05:06:47.356Z,4.63
2019-03-26T05:09:17.630Z,3.97
2019-03-26T05:11:48.002Z,3.13
2019-03-26T05:14:18.376Z,2.90
2019-03-26T05:16:48.893Z,2.77
2019-03-26T05:19:19.301Z,3.37
2019-03-26T05:21:50.194Z,3.30
2019-03-26T05:24:20.832Z,3.30
2019-03-26T05:26:51.266Z,4.33
2019-03-26T05:29:21.758Z,2.60
2019-03-26T05:31:52.232Z,3.23
2019-03-26T05:34:22.746Z,3.10
2019-03-26T05:36:53.406Z,3.00
2019-03-26T05:39:27.398Z,3.53
2019-03-26T05:41:57.713Z,3.10
2019-03-26T05:44:39.092Z,3.47
2019-03-26T05:47:09.714Z,3.00
2019-03-26T05:49:40.008Z,2.90
2019-03-26T05:52:10.500Z,2.47
2019-03-26T05:54:41.046Z,4.03
2019-03-26T05:57:11.614Z,2.43
2019-03-26T05:59:42.104Z,3.27
2019-03-26T06:02:15.273Z,2.03
2019-03-26T06:04:44.553Z,4.20
2019-03-26T06:07:14.937Z,2.73
2019-03-26T06:09:45.808Z,2.77
2019-03-26T06:12:16.284Z,2.80
2019-03-26T06:14:46.786Z,3.13
2019-03-26T06:17:17.072Z,3.17
2019-03-26T06:19:47.699Z,2.77
2019-03-26T06:22:18.284Z,2.60
2019-03-26T06:24:48.871Z,3.70
2019-03-26T06:27:19.326Z,2.87
2019-03-26T06:29:49.908Z,2.63
2019-03-26T06:32:20.304Z,3.30
2019-03-26T06:34:50.830Z,3.90
2019-03-26T06:37:21.396Z,4.03
2019-03-26T06:39:51.682Z,3.17
2019-03-26T06:42:22.130Z,3.53
2019-03-26T06:44:52.557Z,3.83
2019-03-26T06:47:22.975Z,2.53
2019-03-26T06:49:53.502Z,2.70
2019-03-26T06:52:29.073Z,2.87
2019-03-26T06:54:59.458Z,3.53
2019-03-26T06:57:35.365Z,3.10
2019-03-26T07:00:02.247Z,4.13
2019-03-26T07:02:32.697Z,3.80
2019-03-26T07:05:03.196Z,3.13
2019-03-26T07:07:33.633Z,3.53
2019-03-26T07:10:04.009Z,3.03
2019-03-26T07:12:34.396Z,3.13
2019-03-26T07:15:05.546Z,3.63
2019-03-26T07:17:36.866Z,2.87
2019-03-26T07:20:09.486Z,2.43
2019-03-26T07:22:40.285Z,3.70
2019-03-26T07:25:11.272Z,2.57
2019-03-26T07:27:41.656Z,3.07
2019-03-26T07:30:13.300Z,2.80
2019-03-26T07:32:43.715Z,3.67
2019-03-26T07:35:14.004Z,3.17
2019-03-26T07:37:45.690Z,3.10
2019-03-26T07:40:16.395Z,3.40
2019-03-26T07:42:46.854Z,3.57
2019-03-26T07:45:17.309Z,3.00
2019-03-26T07:47:47.663Z,2.97
2019-03-26T07:50:18.195Z,3.53
2019-03-26T07:52:48.697Z,3.40
2019-03-26T07:55:19.005Z,2.70
2019-03-26T07:57:49.273Z,2.43
2019-03-26T08:00:23.023Z,2.23
2019-03-26T08:02:53.425Z,3.70
2019-03-26T08:05:29.656Z,3.70
2019-03-26T08:07:58.551Z,3.70
2019-03-26T08:10:27.806Z,2.83
2019-03-26T08:12:58.340Z,3.00
2019-03-26T08:15:28.845Z,3.53
2019-03-26T08:17:59.319Z,2.97
2019-03-26T08:20:29.730Z,2.80
2019-03-26T08:23:00.226Z,4.27
2019-03-26T08:25:33.636Z,3.67
2019-03-26T08:28:05.025Z,3.70
2019-03-26T08:34:08.119Z,3.10
2019-03-26T08:36:38.512Z,3.23
2019-03-26T08:39:08.909Z,2.77
2019-03-26T08:41:39.362Z,3.03
2019-03-26T08:44:09.739Z,2.97
2019-03-26T08:46:40.230Z,2.90
2019-03-26T08:49:10.608Z,3.10
2019-03-26T08:51:40.964Z,2.57
2019-03-26T08:54:11.350Z,2.63
2019-03-26T08:56:41.690Z,3.57
2019-03-26T08:59:12.056Z,3.00
2019-03-26T09:01:42.638Z,3.20
2019-03-26T09:04:13.001Z,3.77
2019-03-26T09:06:43.375Z,3.90
2019-03-26T09:09:13.805Z,2.13
2019-03-26T09:11:44.204Z,2.90
2019-03-26T09:14:14.877Z,2.97
2019-03-26T09:16:46.563Z,3.47
2019-03-26T09:19:16.863Z,3.13
2019-03-26T09:21:47.145Z,2.90
2019-03-26T09:24:17.569Z,3.60
2019-03-26T09:26:47.949Z,3.60
2019-03-26T09:29:18.196Z,3.30
2019-03-26T09:35:20.703Z,3.20
2019-03-26T09:37:51.191Z,3.17
2019-03-26T09:40:21.630Z,3.50
2019-03-26T09:42:52.006Z,3.07
2019-03-26T09:45:22.543Z,2.30
2019-03-26T09:47:53.005Z,3.70
2019-03-26T09:50:36.585Z,3.03
2019-03-26T09:53:07.021Z,3.30
2019-03-26T09:55:37.278Z,2.77
2019-03-26T09:58:07.720Z,2.97
2019-03-26T10:04:19.600Z,2.40
2019-03-26T10:06:50.111Z,2.93
2019-03-26T10:09:20.494Z,2.07
2019-03-26T10:11:51.257Z,2.30
2019-03-26T10:14:21.453Z,2.83
2019-03-26T10:16:51.859Z,2.97
2019-03-26T10:19:22.252Z,2.10
2019-03-26T10:21:52.641Z,3.13
2019-03-26T10:24:22.999Z,2.83
2019-03-26T10:26:53.423Z,2.90
2019-03-26T10:29:29.990Z,3.40
2019-03-26T10:31:55.982Z,4.03
2019-03-26T10:34:26.516Z,3.07
2019-03-26T10:36:56.976Z,3.47
2019-03-26T10:39:27.324Z,2.83
2019-03-26T10:41:57.671Z,3.03
2019-03-26T10:51:14.903Z,2.73
2019-03-26T10:53:45.226Z,3.17
2019-03-26T10:56:15.606Z,3.10
2019-03-26T10:58:46.165Z,2.67
2019-03-26T11:01:16.582Z,2.80
2019-03-26T11:03:46.843Z,2.63
2019-03-26T11:06:17.276Z,2.60
2019-03-26T11:08:47.594Z,3.77
2019-03-26T11:11:18.075Z,2.43
2019-03-26T11:13:48.529Z,2.67
2019-03-26T11:16:19.003Z,2.73
2019-03-26T11:18:49.287Z,3.00
2019-03-26T11:21:19.662Z,2.73
2019-03-26T11:23:50.043Z,2.97
2019-03-26T11:26:20.367Z,2.77
2019-03-26T11:28:50.686Z,2.97
2019-03-26T11:31:21.020Z,2.93
2019-03-26T11:33:51.346Z,2.87
2019-03-26T11:36:21.799Z,2.50
2019-03-26T11:38:52.412Z,3.60
2019-03-26T11:41:22.937Z,2.63
2019-03-26T11:43:53.356Z,2.40
2019-03-26T11:46:23.762Z,2.73
2019-03-26T11:48:54.220Z,2.93
2019-03-26T11:51:24.698Z,2.30
2019-03-26T11:53:55.184Z,2.60
2019-03-26T11:56:25.699Z,2.53
2019-03-26T11:58:56.355Z,3.70
2019-03-26T12:01:27.070Z,2.13
2019-03-26T12:03:57.623Z,2.10
2019-03-26T12:06:28.107Z,2.60
2019-03-26T12:08:58.615Z,3.07
2019-03-26T12:11:29.018Z,2.20
2019-03-26T12:13:59.441Z,2.40
2019-03-26T12:20:11.020Z,3.10
2019-03-26T12:22:41.554Z,3.07
2019-03-26T12:25:12.386Z,2.90
2019-03-26T12:27:43.076Z,2.80
2019-03-26T12:30:15.396Z,2.70
2019-03-26T12:32:45.894Z,3.57
2019-03-26T12:35:29.736Z,3.27
2019-03-26T12:38:00.702Z,3.27
2019-03-26T12:40:31.390Z,2.97
2019-03-26T12:43:01.874Z,3.10
2019-03-26T12:45:32.476Z,2.83
2019-03-26T12:48:02.892Z,2.83
2019-03-26T12:50:34.422Z,2.37
2019-03-26T12:53:04.736Z,2.90
2019-03-26T12:55:35.245Z,2.33
2019-03-26T12:58:05.653Z,2.17
2019-03-26T13:04:17.632Z,2.37
2019-03-26T13:06:48.048Z,3.23
2019-03-26T13:09:18.606Z,2.33
2019-03-26T13:11:48.948Z,2.53
2019-03-26T13:14:19.404Z,2.40
2019-03-26T13:16:49.938Z,2.60
2019-03-26T13:19:20.319Z,3.10
2019-03-26T13:21:50.672Z,2.70
2019-03-26T13:24:35.402Z,9.80
2019-03-26T13:27:05.768Z,2.70
2019-03-26T13:39:37.903Z,3.27
2019-03-26T13:42:08.392Z,2.70
2019-03-26T13:44:38.860Z,2.50
2019-03-26T13:47:09.646Z,2.57
2019-03-26T13:49:40.178Z,3.60
2019-03-26T13:52:10.592Z,2.73
2019-03-26T13:54:41.334Z,2.47
2019-03-26T13:57:11.800Z,2.43
2019-03-26T13:59:42.276Z,2.43
2019-03-26T14:02:13.304Z,2.27
2019-03-26T14:04:44.016Z,3.13
2019-03-26T14:07:14.536Z,3.80
2019-03-26T14:09:44.904Z,2.50
2019-03-26T14:12:15.388Z,3.27
2019-03-26T14:14:45.881Z,3.33
2019-03-26T14:42:12.216Z,2.93
2019-03-26T14:44:42.573Z,3.13
2019-03-26T14:47:13.165Z,2.80
2019-03-26T14:49:43.469Z,3.17
2019-03-26T14:52:13.847Z,2.80
2019-03-26T14:54:44.323Z,3.50
2019-03-26T14:57:14.855Z,3.00
2019-03-26T14:59:45.246Z,3.23
2019-03-26T15:02:15.574Z,2.63
2019-03-26T15:04:45.890Z,3.70
2019-03-26T15:07:16.285Z,3.13
2019-03-26T15:09:46.796Z,3.10
2019-03-26T15:12:17.318Z,2.70
2019-03-26T15:14:47.731Z,3.07
2019-03-26T15:17:18.448Z,2.80
2019-03-26T15:19:49.005Z,2.97
2019-03-26T15:22:19.499Z,2.70
2019-03-26T15:24:49.893Z,3.40
2019-03-26T15:27:20.277Z,3.13
2019-03-26T15:29:50.731Z,2.73
2019-03-26T15:32:21.215Z,3.70
2019-03-26T15:34:51.805Z,3.90
2019-03-26T15:37:22.405Z,3.63
2019-03-26T15:39:53.230Z,3.40
2019-03-26T15:42:23.522Z,3.70
2019-03-26T15:44:54.028Z,3.53
2019-03-26T15:47:25.105Z,3.33
2019-03-26T15:49:55.597Z,3.57
2019-03-26T15:52:25.961Z,3.20
2019-03-26T15:54:56.414Z,3.60
2019-03-26T15:57:26.941Z,3.47
2019-03-26T15:59:57.373Z,5.57
2019-03-26T16:02:27.839Z,4.37
2019-03-26T16:04:58.339Z,4.07
2019-03-26T16:07:28.693Z,3.67
2019-03-26T16:09:59.007Z,4.10
2019-03-26T16:12:40.453Z,3.50
2019-03-26T16:15:01.994Z,3.90
2019-03-26T16:17:32.389Z,4.03
2019-03-26T16:20:02.681Z,4.00
2019-03-26T16:22:32.936Z,3.77
2019-03-26T16:25:05.064Z,3.97
2019-03-26T16:27:35.607Z,3.67
2019-03-26T16:30:07.079Z,4.50
2019-03-26T16:32:37.693Z,4.63
2019-03-26T16:35:08.413Z,3.93
2019-03-26T16:37:38.992Z,4.07
2019-03-26T16:40:13.417Z,3.83
2019-03-26T16:42:43.798Z,4.43
2019-03-26T16:45:14.153Z,3.87
2019-03-26T16:47:44.415Z,4.10
2019-03-26T16:50:16.288Z,4.73
2019-03-26T16:52:46.741Z,5.00
2019-03-26T16:55:17.542Z,5.23
2019-03-26T16:57:47.952Z,4.73
2019-03-26T17:00:23.653Z,5.00
2019-03-26T17:03:02.363Z,5.00
2019-03-26T17:05:35.191Z,5.13
2019-03-26T17:08:04.729Z,5.90
2019-03-26T17:10:36.816Z,6.93
2019-03-26T17:13:07.133Z,5.17
2019-03-26T17:15:37.454Z,5.50
2019-03-26T17:18:07.750Z,5.23
2019-03-26T17:20:38.082Z,4.37
2019-03-26T17:23:08.502Z,5.37
2019-03-26T17:25:38.886Z,4.13
2019-03-26T17:28:09.273Z,5.93
2019-03-26T17:30:39.597Z,6.60
2019-03-26T17:33:09.900Z,5.40
2019-03-26T17:35:40.481Z,5.53
2019-03-26T17:38:10.814Z,5.37
2019-03-26T17:40:41.368Z,5.57
2019-03-26T17:43:12.067Z,6.40
2019-03-26T17:45:45.301Z,5.87
2019-03-26T17:48:21.140Z,7.37
2019-03-26T17:51:44.084Z,12.57
2019-03-26T17:54:29.116Z,7.60
2019-03-26T17:57:23.314Z,6.10
2019-03-26T17:59:58.239Z,14.43
2019-03-26T18:27:24.324Z,6.07
2019-03-26T18:29:54.634Z,5.80
2019-03-26T18:32:25.219Z,6.47
2019-03-26T18:34:55.609Z,5.77
2019-03-26T18:37:25.896Z,5.63
2019-03-26T18:39:56.214Z,5.83
2019-03-26T18:42:26.634Z,4.57
2019-03-26T18:44:57.125Z,8.90
2019-03-26T18:47:27.425Z,5.10
2019-03-26T18:49:57.972Z,4.80
2019-03-26T18:52:28.353Z,6.73
2019-03-26T18:54:58.767Z,6.33
2019-03-26T18:57:29.027Z,6.27
2019-03-26T18:59:59.431Z,7.30
2019-03-26T19:02:37.249Z,8.03
2019-03-26T19:05:08.950Z,6.97
2019-03-26T19:07:39.406Z,7.93
2019-03-26T19:10:27.191Z,8.40
2019-03-26T19:12:57.745Z,7.67
2019-03-26T19:15:28.075Z,8.20
2019-03-26T19:17:58.308Z,8.10
2019-03-26T19:20:29.343Z,9.53
2019-03-26T19:22:59.732Z,7.23
2019-03-26T19:25:30.115Z,6.47
2019-03-26T19:28:00.576Z,8.73
2019-03-26T19:30:31.203Z,7.33
2019-03-26T19:33:01.664Z,8.67
2019-03-26T19:35:32.399Z,8.17
2019-03-26T19:38:02.727Z,7.13
2019-03-26T19:40:33.092Z,8.93
2019-03-26T19:43:10.743Z,8.13
2019-03-26T19:45:35.590Z,9.20
2019-03-26T19:48:06.109Z,8.90
2019-03-26T19:50:36.578Z,9.73
2019-03-26T19:53:07.053Z,9.40
2019-03-26T19:55:56.298Z,7.47
2019-03-26T19:58:26.808Z,7.07
2019-03-26T20:08:29.530Z,7.27
2019-03-26T20:11:00.091Z,8.50
2019-03-26T20:13:30.546Z,7.27
2019-03-26T20:16:01.043Z,6.60
2019-03-26T20:18:31.693Z,7.70
2019-03-26T20:21:02.141Z,7.23
2019-03-26T20:23:32.811Z,7.13
2019-03-26T20:26:03.193Z,8.00
2019-03-26T20:28:33.644Z,6.73
2019-03-26T20:31:04.013Z,8.37
2019-03-26T20:33:34.439Z,6.70
2019-03-26T20:36:04.891Z,9.83
2019-03-26T20:38:35.338Z,9.03
2019-03-26T20:41:05.671Z,8.70
2019-03-26T20:43:37.580Z,8.30
2019-03-26T20:46:08.346Z,7.57
2019-03-26T20:48:38.830Z,8.83
2019-03-26T20:51:09.255Z,8.87
2019-03-26T20:53:39.835Z,8.73
2019-03-26T20:56:10.494Z,8.03
2019-03-26T20:58:41.439Z,8.60
2019-03-26T21:01:12.059Z,9.07
2019-03-26T21:03:42.411Z,8.87
2019-03-26T21:06:12.893Z,7.87
2019-03-26T21:08:43.439Z,9.00
2019-03-26T21:11:13.903Z,8.70
2019-03-26T21:13:50.627Z,7.63
2019-03-26T21:16:16.461Z,8.70
2019-03-26T21:18:46.881Z,7.93
2019-03-26T21:21:17.699Z,9.50
2019-03-26T21:23:48.229Z,8.43
2019-03-26T21:26:20.858Z,7.67
2019-03-26T21:28:51.337Z,7.93
2019-03-26T21:31:21.720Z,7.40
2019-03-26T21:33:52.117Z,9.97
2019-03-26T21:36:22.489Z,7.43
2019-03-26T21:38:53.101Z,5.93
2019-03-26T21:41:23.385Z,7.80
2019-03-26T21:44:03.642Z,5.87
2019-03-26T21:50:52.164Z,9.30
2019-03-26T21:53:23.488Z,5.63
2019-03-26T21:56:05.735Z,6.53
2019-03-26T21:58:26.076Z,7.27
2019-03-26T22:00:56.493Z,8.30
2019-03-26T22:06:42.523Z,6.13
2019-03-26T22:09:13.629Z,6.50
2019-03-26T22:11:50.122Z,8.73
2019-03-26T22:14:18.320Z,8.40
2019-03-26T22:16:49.037Z,8.03
2019-03-26T22:19:28.517Z,7.10
2019-03-26T22:21:51.518Z,7.10
2019-03-26T22:24:21.910Z,6.27
2019-03-26T22:26:52.178Z,7.53
2019-03-26T22:29:22.695Z,5.17
2019-03-26T22:31:53.257Z,4.80
2019-03-26T22:34:23.552Z,7.17
2019-03-26T22:36:54.164Z,6.47
2019-03-26T22:39:24.568Z,5.23
2019-03-26T22:41:54.952Z,5.43
2019-03-26T22:44:31.246Z,6.37
2019-03-26T22:46:57.398Z,6.63
2019-03-26T22:49:27.747Z,7.50
2019-03-26T22:51:58.201Z,5.43
2019-03-26T22:54:28.546Z,6.23
2019-03-26T22:56:59.090Z,5.90
2019-03-26T22:59:29.657Z,6.17
2019-03-26T23:02:00.118Z,6.63
2019-03-26T23:04:30.526Z,6.47
2019-03-26T23:07:00.796Z,8.23
2019-03-26T23:09:31.135Z,7.27
2019-03-26T23:12:01.454Z,7.30
2019-03-26T23:14:44.564Z,7.00
2019-03-26T23:17:03.983Z,7.53
2019-03-26T23:19:34.469Z,6.93
2019-03-26T23:22:04.890Z,6.47
2019-03-26T23:24:35.307Z,6.93
2019-03-26T23:27:05.719Z,7.10
2019-03-26T23:29:36.082Z,7.30
2019-03-26T23:32:06.544Z,7.50
2019-03-26T23:34:36.838Z,5.90
2019-03-26T23:37:07.241Z,8.10
2019-03-26T23:39:37.652Z,4.23
2019-03-26T23:42:08.034Z,6.90
2019-03-26T23:44:38.352Z,7.20
2019-03-26T23:47:08.660Z,8.30
2019-03-26T23:49:39.090Z,7.53
2019-03-26T23:52:09.510Z,6.87
2019-03-26T23:54:39.831Z,5.93
2019-03-26T23:57:10.565Z,9.87
2019-03-26T23:59:40.924Z,7.77
